Time;durP1;ratioP1;P1;durP2;ratioP2;P2;SDS_P1;SDS_P2;PMS_P1;PMS_P2;Temp;Humidity;BMP_temperature;BMP_pressure;BME280_temperature;BME280_humidity;BME280_pressure;Samples;Min_cycle;Max_cycle;Signal;HPM_P1;HPM_P2
2023/07/25 00:01:33;;;;;;;7.57;5.75;;;23.80;1.00;;;;;;5035119;28;20434;-62
2023/07/25 00:03:58;;;;;;;5.97;4.95;;;24.00;1.00;;;;;;5035726;28;20030;-61
2023/07/25 00:06:24;;;;;;;8.73;5.15;;;24.00;1.00;;;;;;5035609;28;20096;-61
2023/07/25 00:08:49;;;;;;;5.22;4.72;;;24.00;1.00;;;;;;5035319;28;20556;-62
2023/07/25 00:11:15;;;;;;;8.07;5.75;;;24.00;1.00;;;;;;5035217;28;20136;-61
2023/07/25 00:13:41;;;;;;;8.50;5.60;;;23.90;1.00;;;;;;5035544;28;20501;-61
2023/07/25 00:16:06;;;;;;;6.07;5.47;;;24.00;1.00;;;;;;5035365;28;20421;-61
2023/07/25 00:18:32;;;;;;;7.95;5.43;;;24.00;1.00;;;;;;5035095;28;20079;-62
2023/07/25 00:20:58;;;;;;;6.07;5.03;;;24.10;1.00;;;;;;5035366;28;20033;-61
2023/07/25 00:23:23;;;;;;;6.88;5.13;;;24.10;1.00;;;;;;5033946;28;20542;-62
2023/07/25 00:25:49;;;;;;;10.52;6.50;;;24.10;1.00;;;;;;5035317;28;20049;-61
2023/07/25 00:28:15;;;;;;;7.50;5.38;;;24.20;1.00;;;;;;5024292;28;20032;-61
2023/07/25 00:30:40;;;;;;;5.47;4.78;;;24.20;1.00;;;;;;5064019;28;20021;-61
2023/07/25 00:33:06;;;;;;;7.35;5.40;;;24.20;1.00;;;;;;5034925;28;20033;-61
2023/07/25 00:35:33;;;;;;;9.07;5.78;;;24.20;1.00;;;;;;5033856;28;20022;-62
2023/07/25 00:37:59;;;;;;;8.65;6.40;;;24.20;1.00;;;;;;5034871;28;20025;-62
2023/07/25 00:40:28;;;;;;;7.10;5.85;;;24.20;1.00;;;;;;5033545;28;20481;-61
2023/07/25 00:42:54;;;;;;;7.68;5.78;;;24.20;1.00;;;;;;5034384;28;20479;-61
2023/07/25 00:45:20;;;;;;;8.48;5.30;;;24.20;1.00;;;;;;5034675;28;20022;-62
2023/07/25 00:47:46;;;;;;;6.60;5.63;;;24.20;1.00;;;;;;5034934;28;20336;-61
2023/07/25 00:50:12;;;;;;;7.68;5.05;;;24.20;1.00;;;;;;5034531;28;20033;-62
2023/07/25 00:52:38;;;;;;;7.60;5.28;;;24.20;1.00;;;;;;5034401;28;20025;-62
2023/07/25 00:55:04;;;;;;;7.70;5.63;;;24.10;1.00;;;;;;5034466;28;20024;-62
2023/07/25 00:57:30;;;;;;;7.57;5.30;;;24.20;1.00;;;;;;5034056;28;20495;-61
2023/07/25 00:59:58;;;;;;;9.00;5.68;;;24.10;1.00;;;;;;5034119;28;20440;-62
2023/07/25 01:02:24;;;;;;;6.75;4.97;;;24.00;1.00;;;;;;5033475;28;20541;-62
2023/07/25 01:04:49;;;;;;;7.75;5.07;;;24.10;1.00;;;;;;5032867;28;20025;-62
2023/07/25 01:07:16;;;;;;;7.28;5.40;;;24.10;1.00;;;;;;5034092;28;20087;-62
2023/07/25 01:09:44;;;;;;;7.00;4.70;;;24.10;1.00;;;;;;5034215;28;20029;-62
2023/07/25 01:12:11;;;;;;;7.68;4.55;;;24.00;1.00;;;;;;5033371;28;20034;-62
2023/07/25 01:14:52;;;;;;;6.35;4.80;;;23.90;1.00;;;;;;5033703;28;20153;-62
2023/07/25 01:17:20;;;;;;;7.30;5.30;;;23.90;1.00;;;;;;5021236;28;20048;-61
2023/07/25 01:19:47;;;;;;;7.53;5.18;;;24.00;1.00;;;;;;5032688;28;20039;-62
2023/07/25 01:22:13;;;;;;;7.60;5.70;;;24.00;1.00;;;;;;5031333;28;20383;-62
2023/07/25 01:24:44;;;;;;;6.63;4.90;;;24.00;1.00;;;;;;5033333;28;20029;-62
2023/07/25 01:27:10;;;;;;;8.45;4.72;;;24.10;1.00;;;;;;5033144;28;20037;-62
2023/07/25 01:29:36;;;;;;;6.70;5.00;;;24.10;1.00;;;;;;5032617;28;20026;-62
2023/07/25 01:32:02;;;;;;;5.65;5.05;;;24.10;1.00;;;;;;5033053;28;20458;-62
2023/07/25 01:35:12;;;;;;;6.97;5.03;;;24.10;1.00;;;;;;5033458;28;20024;-62
2023/07/25 01:38:02;;;;;;;9.85;5.68;;;24.00;1.00;;;;;;5020276;28;20049;-62
2023/07/25 01:40:28;;;;;;;7.93;5.15;;;23.90;1.00;;;;;;5032728;28;20483;-62
2023/07/25 01:42:53;;;;;;;7.10;5.30;;;23.90;1.00;;;;;;5032965;28;20051;-62
2023/07/25 01:45:19;;;;;;;6.93;5.60;;;23.90;1.00;;;;;;5033496;28;20029;-62
2023/07/25 01:47:45;;;;;;;8.18;5.82;;;23.80;1.00;;;;;;5033602;28;20017;-62
2023/07/25 01:50:10;;;;;;;6.75;6.05;;;23.80;1.00;;;;;;5033240;28;20115;-62
2023/07/25 01:52:36;;;;;;;6.82;5.63;;;23.80;1.00;;;;;;5033334;28;20018;-62
2023/07/25 01:55:02;;;;;;;7.85;6.53;;;23.90;1.00;;;;;;5033609;28;20042;-62
2023/07/25 01:57:27;;;;;;;8.93;6.75;;;23.90;1.00;;;;;;5033306;28;20040;-62
2023/07/25 01:59:53;;;;;;;15.27;7.50;;;23.60;1.00;;;;;;5033180;28;20144;-62
2023/07/25 02:02:19;;;;;;;54.80;14.25;;;23.30;1.00;;;;;;5033575;28;20185;-62
2023/07/25 02:04:46;;;;;;;1202.25;124.50;;;21.90;99.90;;;;;;5033135;28;20044;-61
2023/07/25 02:07:12;;;;;;;1.20;1.10;;;17.60;99.90;;;;;;5023145;28;20030;-62
2023/07/25 02:09:37;;;;;;;0.00;0.00;;;17.60;99.90;;;;;;5027830;28;20083;-61
2023/07/25 02:12:03;;;;;;;0.00;0.00;;;17.80;99.90;;;;;;5032494;28;20053;-61
2023/07/25 02:14:29;;;;;;;0.63;0.63;;;17.90;99.90;;;;;;5033100;28;20048;-60
2023/07/25 02:16:55;;;;;;;0.10;0.10;;;17.70;99.90;;;;;;5033046;28;20116;-60
2023/07/25 02:19:20;;;;;;;0.00;0.00;;;18.00;99.90;;;;;;5033078;28;20057;-61
2023/07/25 02:21:46;;;;;;;0.00;0.00;;;18.30;99.90;;;;;;5032949;28;20068;-60
2023/07/25 02:24:27;;;;;;;0.20;0.20;;;18.30;99.90;;;;;;5031078;28;20033;-61
2023/07/25 02:26:53;;;;;;;0.00;0.00;;;18.30;99.90;;;;;;5032736;28;20044;-61
2023/07/25 02:29:18;;;;;;;0.15;0.15;;;18.50;99.90;;;;;;5031655;28;20026;-60
2023/07/25 02:31:46;;;;;;;0.10;0.10;;;18.70;99.90;;;;;;5032845;28;20025;-60
2023/07/25 02:34:11;;;;;;;0.00;0.00;;;18.80;99.90;;;;;;5033010;28;20048;-60
2023/07/25 02:36:37;;;;;;;0.00;0.00;;;19.00;99.90;;;;;;5032984;28;20435;-60
2023/07/25 02:39:03;;;;;;;0.00;0.00;;;19.10;99.90;;;;;;5032901;28;20020;-60
2023/07/25 02:41:28;;;;;;;0.00;0.00;;;19.40;99.90;;;;;;5032785;28;20032;-60
2023/07/25 02:43:54;;;;;;;0.00;0.00;;;19.60;99.90;;;;;;5032000;28;20048;-60
2023/07/25 02:46:20;;;;;;;0.00;0.00;;;19.80;99.90;;;;;;5032724;28;20498;-60
2023/07/25 02:48:45;;;;;;;0.00;0.00;;;19.60;99.90;;;;;;5033004;28;20029;-60
2023/07/25 02:51:12;;;;;;;0.00;0.00;;;19.70;99.90;;;;;;5032539;28;20021;-60
2023/07/25 02:53:37;;;;;;;0.00;0.00;;;19.60;99.90;;;;;;5032973;28;20018;-60
2023/07/25 02:56:03;;;;;;;0.00;0.00;;;19.60;99.90;;;;;;5033086;28;20471;-60
2023/07/25 02:58:29;;;;;;;0.00;0.00;;;19.60;99.90;;;;;;5031912;28;20049;-60
2023/07/25 03:00:55;;;;;;;0.00;0.00;;;19.60;99.90;;;;;;5027717;28;20041;-60
2023/07/25 03:03:20;;;;;;;0.10;0.10;;;19.60;99.90;;;;;;5031374;28;20105;-60
2023/07/25 03:05:46;;;;;;;0.00;0.00;;;20.00;99.90;;;;;;5032333;28;20026;-64
2023/07/25 03:08:12;;;;;;;0.00;0.00;;;20.00;99.90;;;;;;5031278;28;20052;-60
2023/07/25 03:10:37;;;;;;;0.00;0.00;;;19.90;99.90;;;;;;5032670;28;20018;-60
2023/07/25 03:13:04;;;;;;;0.00;0.00;;;20.00;99.90;;;;;;5032669;28;20064;-60
2023/07/25 03:15:30;;;;;;;0.00;0.00;;;20.10;99.90;;;;;;5031349;28;20033;-60
2023/07/25 03:17:56;;;;;;;0.00;0.00;;;19.50;99.90;;;;;;5032419;28;20034;-60
2023/07/25 03:20:21;;;;;;;0.00;0.00;;;19.40;99.90;;;;;;5032332;28;20406;-60
2023/07/25 03:22:47;;;;;;;0.10;0.10;;;19.70;99.90;;;;;;5032354;28;20029;-60
2023/07/25 03:25:13;;;;;;;0.00;0.00;;;19.60;99.90;;;;;;5035446;28;20498;-61
2023/07/25 03:27:38;;;;;;;0.00;0.00;;;19.80;99.90;;;;;;5036070;28;20490;-61
2023/07/25 03:30:23;;;;;;;0.10;0.10;;;20.00;99.90;;;;;;5035974;28;20041;-61
2023/07/25 03:36:10;;;;;;;0.00;0.00;;;19.70;99.90;;;;;;5032010;28;20395;-61
2023/07/25 03:38:36;;;;;;;0.00;0.00;;;19.90;99.90;;;;;;5034569;28;20017;-61
2023/07/25 03:41:01;;;;;;;0.00;0.00;;;20.10;99.90;;;;;;5035993;28;20625;-61
2023/07/25 03:43:27;;;;;;;0.00;0.00;;;20.00;99.90;;;;;;5035943;28;20029;-61
2023/07/25 03:45:53;;;;;;;0.00;0.00;;;20.10;99.90;;;;;;5030372;28;20056;-61
2023/07/25 03:48:19;;;;;;;0.00;0.00;;;20.20;99.90;;;;;;5027413;28;20068;-61
2023/07/25 03:50:44;;;;;;;0.00;0.00;;;20.10;99.90;;;;;;5021664;28;20017;-61
2023/07/25 03:53:10;;;;;;;0.28;0.28;;;20.20;99.90;;;;;;5035576;28;20513;-60
2023/07/25 03:55:35;;;;;;;0.00;0.00;;;20.10;99.90;;;;;;5035486;28;20071;-60
2023/07/25 03:58:01;;;;;;;0.00;0.00;;;20.20;99.90;;;;;;5035386;28;20080;-61
2023/07/25 04:00:27;;;;;;;0.00;0.00;;;19.90;99.90;;;;;;5035056;28;20046;-60
2023/07/25 04:02:52;;;;;;;0.00;0.00;;;20.20;99.90;;;;;;5035615;28;20030;-61
2023/07/25 04:05:18;;;;;;;0.00;0.00;;;20.10;99.90;;;;;;5035669;28;20026;-60
2023/07/25 04:07:44;;;;;;;0.00;0.00;;;20.20;99.90;;;;;;5035520;28;20073;-60
2023/07/25 04:10:10;;;;;;;0.00;0.00;;;20.30;99.90;;;;;;5035226;28;20030;-61
2023/07/25 04:12:35;;;;;;;0.00;0.00;;;20.10;99.90;;;;;;5035188;28;20101;-61
2023/07/25 04:15:01;;;;;;;0.10;0.10;;;20.20;99.90;;;;;;5033989;28;20451;-61
2023/07/25 04:17:27;;;;;;;0.00;0.00;;;20.40;99.90;;;;;;5034984;28;20521;-60
2023/07/25 04:19:52;;;;;;;0.00;0.00;;;20.30;99.90;;;;;;5035126;28;20412;-61
2023/07/25 04:22:18;;;;;;;0.00;0.00;;;20.20;99.90;;;;;;5035069;28;20083;-60
2023/07/25 04:24:44;;;;;;;0.00;0.00;;;20.10;99.90;;;;;;5035049;28;20025;-60
2023/07/25 04:27:09;;;;;;;0.00;0.00;;;20.40;99.90;;;;;;5035298;28;20030;-60
2023/07/25 04:29:35;;;;;;;0.15;0.15;;;20.40;99.90;;;;;;5034771;28;20025;-60
2023/07/25 04:32:00;;;;;;;0.00;0.00;;;19.90;99.90;;;;;;5033757;28;20068;-61
2023/07/25 04:34:26;;;;;;;0.00;0.00;;;20.30;99.90;;;;;;5035080;28;20025;-60
2023/07/25 04:36:52;;;;;;;0.00;0.00;;;20.20;99.90;;;;;;5033934;28;20459;-60
2023/07/25 04:39:18;;;;;;;0.00;0.00;;;20.10;99.90;;;;;;5034637;28;20482;-60
2023/07/25 04:41:44;;;;;;;0.00;0.00;;;20.10;99.90;;;;;;5034681;28;20037;-60
2023/07/25 04:44:09;;;;;;;0.00;0.00;;;20.20;99.90;;;;;;5035269;28;20411;-60
2023/07/25 04:46:35;;;;;;;0.00;0.00;;;20.20;99.90;;;;;;5033307;28;20394;-60
2023/07/25 04:49:01;;;;;;;0.73;0.73;;;20.10;99.90;;;;;;5033165;28;20029;-60
2023/07/25 04:51:26;;;;;;;0.00;0.00;;;20.30;99.90;;;;;;5034559;28;20037;-61
2023/07/25 04:53:52;;;;;;;0.00;0.00;;;20.30;99.90;;;;;;5034865;28;20025;-60
2023/07/25 04:56:18;;;;;;;0.20;0.20;;;20.30;99.90;;;;;;5034256;28;20510;-60
2023/07/25 04:58:43;;;;;;;0.00;0.00;;;20.30;99.90;;;;;;5031853;28;20873;-60
2023/07/25 05:01:10;;;;;;;0.00;0.00;;;20.10;99.90;;;;;;5033058;28;20041;-60
2023/07/25 05:03:36;;;;;;;0.00;0.00;;;20.10;99.90;;;;;;5030278;28;20063;-60
2023/07/25 05:06:02;;;;;;;0.00;0.00;;;20.10;99.90;;;;;;5032747;28;20049;-60
2023/07/25 05:08:28;;;;;;;0.00;0.00;;;20.00;99.90;;;;;;5033216;28;20022;-60
2023/07/25 05:10:54;;;;;;;0.00;0.00;;;20.20;99.90;;;;;;5031497;28;20045;-60
2023/07/25 05:13:19;;;;;;;0.00;0.00;;;20.00;99.90;;;;;;5032904;28;20029;-59
2023/07/25 05:15:45;;;;;;;0.00;0.00;;;20.20;99.90;;;;;;5033173;28;20483;-60
2023/07/25 05:18:11;;;;;;;0.00;0.00;;;20.10;99.90;;;;;;5032961;28;20124;-60
2023/07/25 05:20:37;;;;;;;0.00;0.00;;;20.20;99.90;;;;;;5033234;28;20029;-60
2023/07/25 05:23:03;;;;;;;0.00;0.00;;;20.10;99.90;;;;;;5032925;28;20034;-60
2023/07/25 05:25:28;;;;;;;0.00;0.00;;;20.00;99.90;;;;;;5033568;28;20033;-60
2023/07/25 05:27:54;;;;;;;0.00;0.00;;;19.90;99.90;;;;;;5032131;28;20404;-60
2023/07/25 05:30:20;;;;;;;0.00;0.00;;;20.00;99.90;;;;;;5033112;28;20057;-60
2023/07/25 05:32:47;;;;;;;0.00;0.00;;;20.10;99.90;;;;;;5032789;28;20033;-60
2023/07/25 05:35:13;;;;;;;0.00;0.00;;;20.00;99.90;;;;;;5032759;28;20060;-60
2023/07/25 05:37:39;;;;;;;0.00;0.00;;;20.00;99.90;;;;;;5032861;28;20057;-60
2023/07/25 05:40:07;;;;;;;0.00;0.00;;;20.40;99.90;;;;;;5032917;28;20487;-60
2023/07/25 05:42:33;;;;;;;0.00;0.00;;;20.20;99.90;;;;;;5032368;28;20025;-60
2023/07/25 05:44:59;;;;;;;0.00;0.00;;;20.30;99.90;;;;;;5032609;28;20117;-61
2023/07/25 05:47:26;;;;;;;0.00;0.00;;;20.30;99.90;;;;;;5032766;28;20097;-60
2023/07/25 05:49:52;;;;;;;0.00;0.00;;;20.20;99.90;;;;;;5032564;28;20034;-60
2023/07/25 05:52:18;;;;;;;0.00;0.00;;;20.30;99.90;;;;;;5032637;28;20025;-60
2023/07/25 05:54:44;;;;;;;0.00;0.00;;;20.30;99.90;;;;;;5032453;28;20045;-61
2023/07/25 05:57:10;;;;;;;0.00;0.00;;;20.20;99.90;;;;;;5032319;28;20041;-61
2023/07/25 05:59:35;;;;;;;0.08;0.08;;;20.20;99.90;;;;;;5032178;28;20513;-60
2023/07/25 06:02:03;;;;;;;0.00;0.00;;;20.20;99.90;;;;;;5032657;28;20116;-61
2023/07/25 06:04:29;;;;;;;0.00;0.00;;;20.30;99.90;;;;;;5032500;28;20495;-61
2023/07/25 06:06:55;;;;;;;0.00;0.00;;;20.20;99.90;;;;;;5032266;28;20063;-61
2023/07/25 06:09:21;;;;;;;0.20;0.20;;;20.40;99.90;;;;;;5032212;28;20386;-59
2023/07/25 06:11:46;;;;;;;0.00;0.00;;;20.40;99.90;;;;;;5032248;28;20037;-59
2023/07/25 06:14:12;;;;;;;0.00;0.00;;;20.60;99.90;;;;;;5030321;28;20041;-60
2023/07/25 06:16:38;;;;;;;0.00;0.00;;;20.60;99.90;;;;;;5032742;28;20041;-61
2023/07/25 06:19:03;;;;;;;0.00;0.00;;;20.50;99.90;;;;;;5030326;28;20025;-61
2023/07/25 06:21:29;;;;;;;9.73;0.38;;;20.40;99.90;;;;;;5020528;28;20037;-61
2023/07/25 06:23:55;;;;;;;0.00;0.00;;;20.60;99.90;;;;;;5031655;28;20479;-61
2023/07/25 06:26:20;;;;;;;0.10;0.10;;;20.70;99.90;;;;;;5030968;28;20052;-61
2023/07/25 06:28:46;;;;;;;0.43;0.43;;;20.80;99.90;;;;;;5038771;28;20021;-61
2023/07/25 06:31:15;;;;;;;0.00;0.00;;;20.90;99.90;;;;;;5032849;28;20105;-61
2023/07/25 06:33:40;;;;;;;0.00;0.00;;;20.80;99.90;;;;;;5033151;28;20087;-61
2023/07/25 06:36:06;;;;;;;0.00;0.00;;;20.80;99.90;;;;;;5032760;28;20037;-61
2023/07/25 06:38:32;;;;;;;0.00;0.00;;;20.70;99.90;;;;;;5032813;28;20049;-61
2023/07/25 06:40:57;;;;;;;0.00;0.00;;;20.60;99.90;;;;;;5032748;28;20104;-61
2023/07/25 06:43:23;;;;;;;0.20;0.10;;;20.70;99.90;;;;;;5032985;28;20035;-51
2023/07/25 06:45:52;;;;;;;0.00;0.00;;;20.70;99.90;;;;;;5032706;28;20036;-69
2023/07/25 06:48:18;;;;;;;0.00;0.00;;;20.70;99.90;;;;;;5032829;28;20025;-67
2023/07/25 06:50:44;;;;;;;0.00;0.00;;;20.60;99.90;;;;;;5033025;28;20372;-68
2023/07/25 06:53:11;;;;;;;0.00;0.00;;;20.60;99.90;;;;;;5032635;28;20045;-67
2023/07/25 06:55:39;;;;;;;0.00;0.00;;;20.60;99.90;;;;;;5032399;28;20450;-68
2023/07/25 06:58:05;;;;;;;0.00;0.00;;;20.50;99.90;;;;;;5032562;28;20025;-68
2023/07/25 07:00:31;;;;;;;0.00;0.00;;;20.60;99.90;;;;;;5035910;28;20075;-68
2023/07/25 07:02:56;;;;;;;0.00;0.00;;;20.70;99.90;;;;;;5036484;28;20048;-62
2023/07/25 07:05:26;;;;;;;1.00;0.65;;;20.90;99.90;;;;;;5036434;28;20057;-61
2023/07/25 07:07:53;;;;;;;0.05;0.05;;;21.00;99.90;;;;;;5035053;28;20033;-63
2023/07/25 07:10:18;;;;;;;0.00;0.00;;;21.10;99.90;;;;;;5036239;28;20483;-64
2023/07/25 07:12:47;;;;;;;0.00;0.00;;;21.20;99.90;;;;;;5036257;28;20127;-60
2023/07/25 07:15:14;;;;;;;0.17;0.17;;;21.50;99.90;;;;;;5036064;28;20033;-62
2023/07/25 07:17:41;;;;;;;0.00;0.00;;;21.70;99.90;;;;;;5036237;28;20029;-62
2023/07/25 07:20:07;;;;;;;0.00;0.00;;;21.60;99.90;;;;;;5035890;28;20026;-67
2023/07/25 07:22:33;;;;;;;0.00;0.00;;;21.80;99.90;;;;;;5036335;28;20052;-67
2023/07/25 07:24:59;;;;;;;0.00;0.00;;;22.40;99.90;;;;;;5036065;28;20092;-67
2023/07/25 07:27:25;;;;;;;0.57;0.57;;;22.40;99.90;;;;;;5034734;28;20029;-75
2023/07/25 07:29:52;;;;;;;0.10;0.10;;;22.30;99.90;;;;;;5036109;28;20033;-76
2023/07/25 07:32:18;;;;;;;0.08;0.08;;;22.40;99.90;;;;;;5036269;28;20087;-76
2023/07/25 07:34:45;;;;;;;0.10;0.10;;;22.50;99.90;;;;;;5035975;28;20065;-76
2023/07/25 07:37:11;;;;;;;0.00;0.00;;;22.40;99.90;;;;;;5035844;28;20038;-76
2023/07/25 07:39:46;;;;;;;0.00;0.00;;;22.40;99.90;;;;;;5035845;28;20517;-76
2023/07/25 07:42:14;;;;;;;0.03;0.03;;;22.30;99.90;;;;;;5035463;28;20033;-76
2023/07/25 07:44:40;;;;;;;0.00;0.00;;;22.30;99.90;;;;;;5035794;28;20029;-77
2023/07/25 07:47:06;;;;;;;0.05;0.05;;;22.40;99.90;;;;;;5035756;28;20048;-76
2023/07/25 07:49:35;;;;;;;0.00;0.00;;;22.60;99.90;;;;;;5035689;28;20021;-77
2023/07/25 07:52:01;;;;;;;0.90;0.57;;;22.60;99.90;;;;;;5035967;28;20415;-76
2023/07/25 07:54:26;;;;;;;0.00;0.00;;;22.50;99.90;;;;;;5035619;28;20044;-77
2023/07/25 07:56:52;;;;;;;0.00;0.00;;;22.60;99.90;;;;;;5034172;28;20044;-76
2023/07/25 07:59:18;;;;;;;0.00;0.00;;;22.60;99.90;;;;;;5035514;28;20046;-76
2023/07/25 08:01:43;;;;;;;0.00;0.00;;;22.70;99.90;;;;;;5035587;28;20036;-76
2023/07/25 08:04:10;;;;;;;0.00;0.00;;;23.00;99.90;;;;;;5035628;28;20025;-77
2023/07/25 08:06:36;;;;;;;1.02;0.35;;;22.80;99.90;;;;;;5035509;28;20108;-77
2023/07/25 08:09:02;;;;;;;0.00;0.00;;;22.90;99.90;;;;;;5032594;28;20117;-77
2023/07/25 08:11:28;;;;;;;0.10;0.10;;;22.70;99.90;;;;;;5024132;28;20068;-77
2023/07/25 08:13:53;;;;;;;0.30;0.30;;;22.90;99.90;;;;;;5035166;28;20503;-77
2023/07/25 08:16:19;;;;;;;0.00;0.00;;;22.90;99.90;;;;;;5035397;28;20079;-77
2023/07/25 08:18:45;;;;;;;0.70;0.32;;;23.10;99.90;;;;;;5035177;28;20079;-77
2023/07/25 08:21:10;;;;;;;0.00;0.00;;;23.30;99.90;;;;;;5035069;28;20095;-78
2023/07/25 08:23:36;;;;;;;0.00;0.00;;;23.10;99.90;;;;;;5035027;28;20029;-77
2023/07/25 08:26:02;;;;;;;0.00;0.00;;;23.10;99.90;;;;;;5033683;28;20032;-77
2023/07/25 08:28:27;;;;;;;0.08;0.08;;;23.30;1.00;;;;;;5035049;28;20056;-77
2023/07/25 08:31:05;;;;;;;0.52;0.52;;;23.50;1.00;;;;;;5034947;28;20067;-77
2023/07/25 08:33:36;;;;;;;0.15;0.15;;;23.60;1.00;;;;;;5035537;28;20486;-77
2023/07/25 08:36:03;;;;;;;0.00;0.00;;;23.60;1.00;;;;;;5035130;28;20044;-77
2023/07/25 08:38:30;;;;;;;0.40;0.30;;;23.60;1.00;;;;;;5035010;28;20013;-76
2023/07/25 08:41:27;;;;;;;0.05;0.05;;;23.70;1.00;;;;;;5034630;28;20080;-76
2023/07/25 08:43:54;;;;;;;0.00;0.00;;;23.80;1.00;;;;;;5033541;28;20165;-77
2023/07/25 08:46:21;;;;;;;0.10;0.10;;;23.90;1.00;;;;;;5034618;28;20033;-77
2023/07/25 08:48:48;;;;;;;0.10;0.10;;;23.90;1.00;;;;;;5034634;28;20036;-77
2023/07/25 08:51:19;;;;;;;0.00;0.00;;;23.90;1.00;;;;;;5034240;28;20471;-76
2023/07/25 08:53:56;;;;;;;0.22;0.22;;;23.90;1.00;;;;;;5034534;28;20105;-77
2023/07/25 08:56:23;;;;;;;0.00;0.00;;;23.90;1.00;;;;;;5034661;28;20038;-77
2023/07/25 08:58:50;;;;;;;0.08;0.08;;;24.00;1.00;;;;;;5034716;28;20073;-76
2023/07/25 09:01:15;;;;;;;1.35;0.60;;;24.40;1.00;;;;;;5034830;28;20033;-76
2023/07/25 09:03:42;;;;;;;0.00;0.00;;;24.20;1.00;;;;;;5034982;28;20364;-77
2023/07/25 09:06:10;;;;;;;0.30;0.30;;;24.10;1.00;;;;;;5034255;28;20567;-77
2023/07/25 09:08:36;;;;;;;0.10;0.10;;;24.20;1.00;;;;;;5034498;28;20030;-77
2023/07/25 09:11:03;;;;;;;0.10;0.10;;;24.10;1.00;;;;;;5034482;28;20356;-77
2023/07/25 09:13:30;;;;;;;0.10;0.10;;;24.10;1.00;;;;;;5034107;28;20033;-77
2023/07/25 09:15:55;;;;;;;0.10;0.10;;;24.20;1.00;;;;;;5025664;28;20183;-77
2023/07/25 09:18:23;;;;;;;0.30;0.30;;;24.20;1.00;;;;;;5028635;28;20053;-77
2023/07/25 09:20:49;;;;;;;0.20;0.20;;;24.50;1.00;;;;;;5034086;28;20025;-77
2023/07/25 09:23:21;;;;;;;0.03;0.03;;;24.60;1.00;;;;;;5021645;28;20076;-77
2023/07/25 09:26:01;;;;;;;0.30;0.30;;;24.90;1.00;;;;;;5033254;28;20104;-78
2023/07/25 09:28:27;;;;;;;0.10;0.10;;;24.80;1.00;;;;;;5034449;28;20366;-77
2023/07/25 09:30:52;;;;;;;0.00;0.00;;;24.80;1.00;;;;;;5032854;28;20076;-78
2023/07/25 09:33:26;;;;;;;0.28;0.28;;;24.80;1.00;;;;;;5034167;28;20065;-78
2023/07/25 09:35:55;;;;;;;0.17;0.17;;;24.90;1.00;;;;;;5034114;28;20414;-77
2023/07/25 09:38:21;;;;;;;0.70;0.70;;;24.90;1.00;;;;;;5034156;28;20068;-78
2023/07/25 09:40:47;;;;;;;0.10;0.10;;;24.90;1.00;;;;;;5033807;28;20036;-77
2023/07/25 09:43:27;;;;;;;0.05;0.05;;;24.90;1.00;;;;;;5033907;28;20039;-77
2023/07/25 09:45:56;;;;;;;0.00;0.00;;;25.20;1.00;;;;;;5033910;28;20022;-77
2023/07/25 09:48:22;;;;;;;0.10;0.10;;;25.30;1.00;;;;;;5034059;28;20029;-78
2023/07/25 09:50:50;;;;;;;0.10;0.10;;;25.10;1.00;;;;;;5025621;28;20026;-77
2023/07/25 09:53:16;;;;;;;0.00;0.00;;;25.20;1.00;;;;;;5033598;28;20072;-78
2023/07/25 09:55:43;;;;;;;0.10;0.10;;;25.30;1.00;;;;;;5033136;28;20455;-77
2023/07/25 09:58:10;;;;;;;0.80;0.52;;;25.50;1.00;;;;;;5033471;28;20132;-77
2023/07/25 10:00:35;;;;;;;0.10;0.10;;;25.60;1.00;;;;;;5033424;28;20140;-78
2023/07/25 10:03:01;;;;;;;0.00;0.00;;;25.70;1.00;;;;;;5033492;28;20487;-78
2023/07/25 10:05:28;;;;;;;0.00;0.00;;;25.70;1.00;;;;;;5033323;28;20487;-77
2023/07/25 10:07:55;;;;;;;0.10;0.10;;;25.70;1.00;;;;;;5033243;28;20029;-78
2023/07/25 10:10:25;;;;;;;0.08;0.08;;;25.70;1.00;;;;;;5033163;28;20159;-77
2023/07/25 10:12:52;;;;;;;0.10;0.10;;;25.90;1.00;;;;;;5031877;28;20034;-77
2023/07/25 10:15:18;;;;;;;0.90;0.90;;;25.80;1.00;;;;;;5033084;28;20033;-79
2023/07/25 10:17:45;;;;;;;0.00;0.00;;;25.90;1.00;;;;;;5024151;28;20037;-78
2023/07/25 10:20:20;;;;;;;0.20;0.20;;;25.90;1.00;;;;;;5027185;28;20040;-77
2023/07/25 10:22:46;;;;;;;0.10;0.10;;;25.80;1.00;;;;;;5033305;28;20434;-77
2023/07/25 10:25:19;;;;;;;0.75;0.75;;;25.70;1.00;;;;;;5032912;28;20018;-78
2023/07/25 10:27:46;;;;;;;0.10;0.10;;;25.70;1.00;;;;;;5033169;28;20441;-77
2023/07/25 10:30:24;;;;;;;0.00;0.00;;;25.80;1.00;;;;;;5033003;28;20034;-77
2023/07/25 10:32:53;;;;;;;0.10;0.10;;;26.30;1.00;;;;;;5032726;28;20036;-77
2023/07/25 10:35:52;;;;;;;0.30;0.30;;;26.30;1.00;;;;;;5032432;28;20480;-77
2023/07/25 10:38:34;;;;;;;0.10;0.10;;;26.50;1.00;;;;;;5021755;28;20057;-77
2023/07/25 10:41:11;;;;;;;0.03;0.03;;;26.50;1.00;;;;;;5032804;28;20049;-77
2023/07/25 10:43:46;;;;;;;0.32;0.32;;;26.60;1.00;;;;;;5031669;28;20026;-78
2023/07/25 10:46:14;;;;;;;0.10;0.10;;;26.90;1.00;;;;;;5032751;28;20387;-78
2023/07/25 10:48:45;;;;;;;0.20;0.20;;;26.90;1.00;;;;;;5032861;28;20052;-78
2023/07/25 10:51:15;;;;;;;0.40;0.30;;;27.30;1.00;;;;;;5032997;28;20387;-77
2023/07/25 10:53:58;;;;;;;0.70;0.52;;;27.70;1.00;;;;;;5033080;28;20033;-77
2023/07/25 10:57:07;;;;;;;0.10;0.10;;;27.70;1.00;;;;;;5032544;28;20104;-76
2023/07/25 10:59:33;;;;;;;0.10;0.10;;;27.80;1.00;;;;;;5027975;28;20099;-77
2023/07/25 11:01:59;;;;;;;0.40;0.40;;;27.50;1.00;;;;;;5032678;28;20029;-77
2023/07/25 11:04:30;;;;;;;0.43;0.43;;;27.30;1.00;;;;;;5032911;28;20103;-78
2023/07/25 11:06:57;;;;;;;0.17;0.17;;;27.20;1.00;;;;;;5027474;28;20053;-77
2023/07/25 11:09:24;;;;;;;0.30;0.30;;;27.50;1.00;;;;;;5024402;28;20037;-77
2023/07/25 11:11:52;;;;;;;0.13;0.13;;;27.80;1.00;;;;;;5031030;28;20150;-78
2023/07/25 11:14:19;;;;;;;0.55;0.55;;;28.30;1.00;;;;;;5032472;28;20483;-78
2023/07/25 11:16:49;;;;;;;0.10;0.10;;;28.70;1.00;;;;;;5032288;28;20517;-77
2023/07/25 11:19:15;;;;;;;0.80;0.73;;;28.90;1.00;;;;;;5031461;28;20083;-78
2023/07/25 11:21:42;;;;;;;0.10;0.10;;;28.60;1.00;;;;;;5032379;28;20432;-78
2023/07/25 11:24:09;;;;;;;0.47;0.47;;;28.80;1.00;;;;;;5032701;28;20048;-78
2023/07/25 11:26:37;;;;;;;0.10;0.10;;;28.70;1.00;;;;;;5032433;28;20487;-78
2023/07/25 11:29:06;;;;;;;0.10;0.10;;;28.70;1.00;;;;;;5032183;28;20036;-77
2023/07/25 11:31:32;;;;;;;0.43;0.43;;;29.00;1.00;;;;;;5032741;28;20108;-77
2023/07/25 11:34:12;;;;;;;0.25;0.25;;;29.00;1.00;;;;;;5032442;28;20060;-78
2023/07/25 11:36:39;;;;;;;0.10;0.10;;;29.30;99.90;;;;;;5032521;28;20044;-78
2023/07/25 11:39:06;;;;;;;0.20;0.20;;;30.20;99.90;;;;;;5032264;28;20025;-77
2023/07/25 11:41:33;;;;;;;0.73;0.73;;;34.60;99.90;;;;;;5031591;28;20471;-78
2023/07/25 11:43:59;;;;;;;0.10;0.10;;;35.60;99.90;;;;;;5032363;28;20052;-78
2023/07/25 11:46:26;;;;;;;0.35;0.35;;;37.40;99.90;;;;;;5035494;28;20029;-78
2023/07/25 11:48:53;;;;;;;0.50;0.50;;;37.70;99.90;;;;;;5034334;28;20026;-77
2023/07/25 11:51:19;;;;;;;0.98;0.98;;;38.90;99.90;;;;;;5036272;28;20017;-77
2023/07/25 11:53:50;;;;;;;0.50;0.50;;;39.60;99.90;;;;;;5035519;28;20479;-77
2023/07/25 11:56:18;;;;;;;0.75;0.75;;;40.10;99.90;;;;;;5034145;28;20140;-75
2023/07/25 11:58:50;;;;;;;0.60;0.60;;;40.20;99.90;;;;;;5035191;28;20068;-76
2023/07/25 12:01:18;;;;;;;0.90;0.90;;;40.80;99.90;;;;;;5035482;28;20071;-75
2023/07/25 12:03:48;;;;;;;0.60;0.60;;;41.20;99.90;;;;;;5035611;28;20375;-75
2023/07/25 12:06:15;;;;;;;0.52;0.52;;;40.60;99.90;;;;;;5035605;28;20108;-75
2023/07/25 12:08:45;;;;;;;1.30;1.30;;;40.10;99.90;;;;;;5035316;28;20029;-75
2023/07/25 12:11:15;;;;;;;0.90;0.90;;;37.80;99.90;;;;;;5033968;28;20179;-75
2023/07/25 12:13:55;;;;;;;0.80;0.80;;;36.20;99.90;;;;;;5035325;28;20040;-74
2023/07/25 12:16:25;;;;;;;1.08;1.08;;;35.90;99.90;;;;;;5035090;28;20056;-74
2023/07/25 12:18:53;;;;;;;9.70;7.88;;;36.70;99.90;;;;;;5034999;28;20031;-75
2023/07/25 12:21:39;;;;;;;9.40;7.80;;;37.50;99.90;;;;;;5035078;28;20498;-75
2023/07/25 12:24:06;;;;;;;8.50;7.68;;;;;;;;;;5021854;28;20025;-74
2023/07/25 12:26:50;;;;;;;7.78;7.00;;;37.10;99.90;;;;;;5017314;28;20021;-75
2023/07/25 12:29:18;;;;;;;8.30;7.22;;;;;;;;;;5022630;28;20034;-75
2023/07/25 12:31:44;;;;;;;8.98;6.88;;;;;;;;;;5034969;28;20045;-75
2023/07/25 12:34:12;;;;;;;9.05;7.97;;;;;;;;;;5029245;28;20014;-74
2023/07/25 12:36:38;;;;;;;7.90;7.10;;;;;;;;;;5026753;28;20037;-74
2023/07/25 12:39:04;;;;;;;10.00;7.10;;;;;;;;;;5033453;28;20113;-74
2023/07/25 12:41:30;;;;;;;7.72;6.30;;;;;;;;;;5034649;28;20490;-74
2023/07/25 12:43:56;;;;;;;7.93;7.07;;;;;;;;;;5033640;28;20076;-74
2023/07/25 12:46:22;;;;;;;8.27;7.30;;;;;;;;;;5034638;28;20025;-74
2023/07/25 12:48:48;;;;;;;8.00;7.07;;;;;;;;;;5034624;28;20032;-74
2023/07/25 12:51:16;;;;;;;8.02;6.97;;;;;;;;;;5034483;28;20422;-74
2023/07/25 12:53:42;;;;;;;7.15;6.45;;;;;;;;;;5034755;28;20024;-73
2023/07/25 12:56:08;;;;;;;9.20;6.43;;;;;;;;;;5034110;28;20120;-73
2023/07/25 12:58:34;;;;;;;8.70;7.00;;;;;;;;;;5033838;28;20013;-72
2023/07/25 13:01:00;;;;;;;7.85;7.05;;;;;;;;;;5033073;28;20044;-73